Disclaimer

Please do not use the information listed here in-flight or in-navigation, as they are not provided to us by the airports but are provided by volunteers, so they might be outdated.

Search


Regions


Airport information page

Radio informations:
INFO - 121.9 MHz

Airport informations:
Latitude: 25° 52' 32.67" N
Longitude: 055° 01' 58.78" E
Elevation: 23 feet - 7 meters
Operating hours: From sunrise to sunset (SR-SS)
Operating agency: Civil government, landing fees and diplomatic clearance may be required
Timezone: UTC+3:30
Fuel: Unknown fuel type or whether there is any fuel.

Runway information:
08/26 - 9796 x 148 feet< - >2986 x 45 meters

Recent METARs:
OIBA 171000Z 24014KT 5000 NSC 26/22 Q1013
OIBA 171000Z 24014KT 5000 NSC 26/22 Q1013
OIBA 171100Z 27012KT 5000 HZ NSC 26/22 Q1012 REDZ

Airport on the map: